Time;durP1;ratioP1;P1;durP2;ratioP2;P2;SDS_P1;SDS_P2;PMS_P1;PMS_P2;Temp;Humidity;BMP_temperature;BMP_pressure;BME280_temperature;BME280_humidity;BME280_pressure;Samples;Min_cycle;Max_cycle;Signal;HPM_P1;HPM_P2
2021/04/15 00:02:00;;;;;;;2.40;0.95;;;6.80;83.00;;;;;;4848778;29;20378;-65
2021/04/15 00:04:27;;;;;;;3.05;1.33;;;6.80;83.80;;;;;;4844306;29;20045;-65
2021/04/15 00:06:54;;;;;;;2.40;1.10;;;6.80;82.70;;;;;;4853832;29;20060;-64
2021/04/15 00:09:23;;;;;;;3.10;1.10;;;6.80;84.30;;;;;;4850634;29;20049;-64
2021/04/15 00:11:51;;;;;;;3.70;1.85;;;6.70;84.70;;;;;;4840831;29;20077;-64
2021/04/15 00:14:22;;;;;;;2.42;1.25;;;6.60;84.60;;;;;;4841692;29;20057;-64
2021/04/15 00:16:49;;;;;;;3.83;1.52;;;6.60;84.80;;;;;;4843478;29;20532;-65
2021/04/15 00:19:18;;;;;;;3.72;1.60;;;6.60;84.80;;;;;;4848483;29;20132;-65
2021/04/15 00:21:46;;;;;;;3.72;1.55;;;6.60;84.80;;;;;;4843264;29;20050;-65
2021/04/15 00:24:13;;;;;;;3.50;1.98;;;6.60;84.80;;;;;;4856813;29;20050;-65
2021/04/15 00:26:40;;;;;;;4.00;1.75;;;6.60;84.80;;;;;;4846408;29;20052;-65
2021/04/15 00:29:07;;;;;;;7.13;1.70;;;6.70;84.90;;;;;;4850709;29;20078;-65
2021/04/15 00:31:33;;;;;;;3.70;1.55;;;6.60;85.70;;;;;;4852413;29;20120;-64
2021/04/15 00:34:00;;;;;;;3.03;1.58;;;6.70;85.50;;;;;;4850707;29;20041;-65
2021/04/15 00:36:27;;;;;;;3.97;1.50;;;6.60;85.00;;;;;;4835867;29;20049;-65
2021/04/15 00:38:54;;;;;;;4.13;1.75;;;6.60;84.90;;;;;;4842094;29;20041;-65
2021/04/15 00:41:22;;;;;;;3.78;2.10;;;6.70;86.00;;;;;;4849107;29;20054;-65
2021/04/15 00:43:49;;;;;;;4.20;2.03;;;6.70;85.60;;;;;;4850905;29;20042;-65
2021/04/15 00:46:48;;;;;;;3.53;1.85;;;6.70;85.80;;;;;;4845423;29;20046;-65
2021/04/15 00:49:25;;;;;;;3.20;1.38;;;6.60;86.20;;;;;;4842532;29;20573;-64
2021/04/15 00:51:55;;;;;;;5.10;1.83;;;6.70;86.60;;;;;;4841310;29;20054;-64
2021/04/15 00:54:51;;;;;;;4.18;2.20;;;6.60;86.40;;;;;;4842293;29;20065;-65
2021/04/15 00:57:25;;;;;;;5.45;2.30;;;6.50;86.30;;;;;;4844159;29;20400;-65
2021/04/15 00:59:51;;;;;;;5.13;1.73;;;6.50;86.00;;;;;;4847598;29;20044;-65
2021/04/15 01:02:21;;;;;;;2.95;1.52;;;6.50;86.10;;;;;;4834554;29;20053;-65
2021/04/15 01:04:53;;;;;;;4.13;1.63;;;6.50;86.10;;;;;;4846374;29;20040;-63
2021/04/15 01:07:20;;;;;;;5.03;2.17;;;6.50;87.30;;;;;;4844463;29;20054;-62
2021/04/15 01:09:48;;;;;;;4.60;1.83;;;6.50;87.10;;;;;;4853188;29;20845;-63
2021/04/15 01:12:32;;;;;;;6.10;2.40;;;6.40;86.90;;;;;;4845771;29;20072;-63
2021/04/15 01:15:08;;;;;;;4.72;2.10;;;6.40;87.00;;;;;;4853016;29;20072;-63
2021/04/15 01:18:04;;;;;;;4.80;1.98;;;6.40;87.60;;;;;;4843604;29;20046;-63
2021/04/15 01:20:58;;;;;;;5.13;2.30;;;6.30;88.10;;;;;;4841551;29;20064;-63
2021/04/15 01:23:37;;;;;;;6.22;2.15;;;6.30;89.20;;;;;;4851231;29;20053;-63
2021/04/15 01:26:32;;;;;;;5.57;1.88;;;6.20;87.90;;;;;;4847118;29;20049;-65
2021/04/15 01:29:11;;;;;;;4.25;1.95;;;6.30;89.60;;;;;;4834940;29;20060;-65
2021/04/15 01:31:46;;;;;;;5.43;1.88;;;6.30;89.50;;;;;;4841892;29;20041;-65
2021/04/15 01:34:36;;;;;;;3.67;1.92;;;6.30;90.10;;;;;;4845021;29;20420;-65
2021/04/15 01:37:23;;;;;;;2.72;1.40;;;6.30;89.80;;;;;;4843678;29;20039;-63
2021/04/15 01:39:59;;;;;;;5.13;1.80;;;6.30;90.00;;;;;;4817390;29;20509;-63
2021/04/15 01:42:32;;;;;;;3.50;1.58;;;6.20;90.10;;;;;;4842130;29;20548;-63
2021/04/15 01:45:06;;;;;;;3.78;1.67;;;6.20;89.90;;;;;;4811405;29;20062;-63
2021/04/15 01:47:57;;;;;;;6.80;2.63;;;6.30;90.40;;;;;;4834328;29;20054;-63
2021/04/15 01:50:31;;;;;;;6.30;1.88;;;6.30;90.60;;;;;;4822176;29;20073;-62
2021/04/15 01:53:02;;;;;;;7.93;2.22;;;6.20;90.80;;;;;;4838362;29;20069;-63
2021/04/15 01:55:34;;;;;;;3.47;1.35;;;6.20;90.20;;;;;;4832939;29;20049;-63
2021/04/15 01:58:18;;;;;;;4.18;1.80;;;6.20;90.80;;;;;;4834055;29;20413;-63
2021/04/15 02:00:50;;;;;;;5.38;1.88;;;6.20;90.70;;;;;;4857264;29;20038;-62
2021/04/15 02:03:28;;;;;;;4.35;1.45;;;6.20;91.00;;;;;;4836617;29;20042;-63
2021/04/15 02:05:59;;;;;;;3.97;1.77;;;6.20;90.80;;;;;;4854616;29;20532;-63
2021/04/15 02:08:32;;;;;;;3.47;1.67;;;6.20;90.80;;;;;;4844540;29;20053;-63
2021/04/15 02:11:08;;;;;;;4.85;2.40;;;6.10;91.40;;;;;;4841045;29;20054;-63
2021/04/15 02:13:39;;;;;;;3.65;1.52;;;6.00;91.60;;;;;;4838691;29;20058;-63
2021/04/15 02:16:12;;;;;;;3.42;1.65;;;6.10;91.30;;;;;;4830464;29;20552;-63
2021/04/15 02:18:43;;;;;;;3.05;1.65;;;6.10;91.20;;;;;;4826688;29;20038;-63
2021/04/15 02:21:32;;;;;;;2.92;1.30;;;6.10;91.30;;;;;;4853120;29;20060;-63
2021/04/15 02:24:10;;;;;;;4.15;1.40;;;5.90;91.40;;;;;;4839007;29;20049;-63
2021/04/15 02:26:41;;;;;;;4.35;1.60;;;5.90;91.40;;;;;;4843584;29;20049;-63
2021/04/15 02:29:22;;;;;;;5.28;1.65;;;5.90;91.60;;;;;;4830517;29;20042;-63
2021/04/15 02:32:18;;;;;;;3.00;1.27;;;5.90;91.90;;;;;;4852026;29;20041;-63
2021/04/15 02:34:58;;;;;;;5.45;2.20;;;6.00;92.10;;;;;;4819927;29;20046;-63
2021/04/15 02:37:34;;;;;;;3.20;1.33;;;5.90;91.90;;;;;;4821609;29;20065;-63
2021/04/15 02:40:05;;;;;;;4.90;1.98;;;5.90;92.10;;;;;;4843088;29;20049;-63
2021/04/15 02:42:36;;;;;;;3.55;2.08;;;5.80;92.40;;;;;;4849918;29;20045;-63
2021/04/15 02:45:19;;;;;;;5.07;1.95;;;5.80;92.20;;;;;;4843919;29;20422;-63
2021/04/15 02:48:10;;;;;;;4.35;1.98;;;5.60;92.60;;;;;;4835542;29;20045;-63
2021/04/15 02:50:41;;;;;;;3.33;1.30;;;5.60;92.80;;;;;;4850608;29;20048;-63
2021/04/15 02:53:17;;;;;;;3.65;1.48;;;5.70;93.20;;;;;;4842311;29;20516;-64
2021/04/15 02:56:06;;;;;;;3.60;1.63;;;5.70;93.20;;;;;;4851057;29;20049;-63
2021/04/15 02:58:59;;;;;;;3.63;1.63;;;5.60;93.10;;;;;;4826202;29;20049;-63
2021/04/15 03:01:31;;;;;;;3.50;1.33;;;5.70;93.20;;;;;;4828812;29;20061;-63
2021/04/15 03:03:58;;;;;;;5.38;1.67;;;5.70;93.80;;;;;;4828361;29;20042;-63
2021/04/15 03:06:33;;;;;;;3.45;1.52;;;5.60;93.70;;;;;;4832520;29;20049;-63
2021/04/15 03:09:07;;;;;;;4.20;1.20;;;5.70;94.00;;;;;;4840522;29;20046;-63
2021/04/15 03:11:42;;;;;;;3.33;1.73;;;5.80;93.50;;;;;;4851765;29;20101;-63
2021/04/15 03:14:44;;;;;;;3.60;1.73;;;5.70;93.60;;;;;;4853344;29;20053;-63
2021/04/15 03:17:13;;;;;;;5.68;1.67;;;5.70;93.90;;;;;;4759185;30;22503;-64
2021/04/15 03:19:45;;;;;;;3.78;1.77;;;5.80;93.60;;;;;;4777461;30;20451;-63
2021/04/15 03:22:21;;;;;;;2.80;1.33;;;5.70;94.10;;;;;;4769482;30;20121;-63
2021/04/15 03:24:52;;;;;;;3.30;1.52;;;5.80;94.00;;;;;;4766664;29;20407;-63
2021/04/15 03:27:31;;;;;;;4.90;2.20;;;5.80;93.90;;;;;;4778114;29;20070;-63
2021/04/15 03:30:19;;;;;;;3.58;1.63;;;5.80;94.20;;;;;;4787538;30;20503;-63
2021/04/15 03:33:07;;;;;;;5.22;2.45;;;5.90;94.70;;;;;;4784191;30;20071;-64
2021/04/15 03:35:42;;;;;;;3.33;1.38;;;5.90;95.40;;;;;;4768087;30;20055;-63
2021/04/15 03:38:14;;;;;;;5.93;1.77;;;5.90;94.70;;;;;;4769447;30;20063;-63
2021/04/15 03:40:55;;;;;;;3.75;1.95;;;5.90;95.10;;;;;;4783095;30;20142;-63
2021/04/15 03:43:30;;;;;;;3.50;1.63;;;5.70;94.80;;;;;;4784498;30;20047;-63
2021/04/15 03:46:06;;;;;;;4.95;1.83;;;5.80;95.30;;;;;;4770289;30;20649;-63
2021/04/15 03:48:37;;;;;;;5.55;1.90;;;5.80;95.20;;;;;;4785333;30;20563;-63
2021/04/15 03:51:17;;;;;;;4.68;2.03;;;5.90;95.20;;;;;;4769376;30;20140;-63
2021/04/15 03:54:15;;;;;;;4.72;1.98;;;5.90;96.50;;;;;;4842226;29;20054;-63
2021/04/15 03:56:54;;;;;;;5.43;1.95;;;5.90;95.60;;;;;;4838916;29;20049;-63
2021/04/15 03:59:26;;;;;;;4.07;1.52;;;5.80;97.40;;;;;;4842606;29;20647;-63
2021/04/15 04:01:58;;;;;;;5.05;1.88;;;5.90;97.20;;;;;;4841341;29;20076;-63
2021/04/15 04:04:31;;;;;;;5.15;2.40;;;5.80;97.80;;;;;;4849933;29;20294;-63
2021/04/15 04:07:03;;;;;;;11.40;3.83;;;5.90;97.50;;;;;;4859112;29;20046;-63
2021/04/15 04:09:33;;;;;;;9.48;3.53;;;5.90;96.30;;;;;;4823193;29;20100;-64
2021/04/15 04:12:01;;;;;;;4.93;1.95;;;5.90;97.20;;;;;;4843962;29;20363;-63
2021/04/15 04:14:49;;;;;;;4.18;2.05;;;5.90;97.00;;;;;;4827121;29;20072;-63
2021/04/15 04:17:25;;;;;;;4.55;2.40;;;6.00;96.10;;;;;;4844663;29;20060;-63
2021/04/15 04:19:54;;;;;;;5.78;1.90;;;6.00;95.80;;;;;;4853180;29;20075;-63
2021/04/15 04:22:43;;;;;;;4.18;1.98;;;6.00;96.10;;;;;;4854999;29;20054;-64
2021/04/15 04:25:46;;;;;;;4.82;1.92;;;5.90;96.30;;;;;;4831446;29;20049;-63
2021/04/15 04:28:31;;;;;;;4.43;2.00;;;5.90;96.60;;;;;;4842817;29;20045;-63
2021/04/15 04:31:18;;;;;;;4.53;1.65;;;5.90;96.40;;;;;;4847245;29;20520;-63
2021/04/15 04:33:48;;;;;;;3.72;1.63;;;5.90;95.80;;;;;;4843468;29;20122;-63
2021/04/15 04:36:17;;;;;;;3.95;1.88;;;6.00;95.70;;;;;;4854233;29;20103;-63
2021/04/15 04:38:44;;;;;;;2.75;1.58;;;6.00;96.30;;;;;;4839116;29;20435;-63
2021/04/15 04:41:17;;;;;;;4.25;1.70;;;5.90;95.90;;;;;;4846938;29;20498;-63
2021/04/15 04:43:59;;;;;;;3.40;1.48;;;5.90;96.60;;;;;;4846669;29;20125;-63
2021/04/15 04:46:36;;;;;;;4.13;1.50;;;6.00;96.20;;;;;;4842348;29;20050;-64
2021/04/15 04:49:17;;;;;;;5.10;2.50;;;6.20;95.50;;;;;;4840703;29;20046;-63
2021/04/15 04:51:46;;;;;;;6.53;2.40;;;6.30;94.80;;;;;;4856179;29;20057;-64
2021/04/15 04:54:17;;;;;;;4.28;1.58;;;6.20;94.60;;;;;;4849907;29;20549;-64
2021/04/15 04:57:06;;;;;;;4.57;2.40;;;6.20;94.30;;;;;;4842186;29;20053;-64
2021/04/15 04:59:42;;;;;;;3.20;1.77;;;6.20;95.50;;;;;;4844956;29;20073;-63
2021/04/15 05:02:13;;;;;;;3.50;1.60;;;6.20;94.90;;;;;;4848655;29;20061;-63
2021/04/15 05:04:42;;;;;;;3.90;2.10;;;6.30;94.80;;;;;;4830863;29;20072;-64
2021/04/15 05:07:24;;;;;;;4.13;1.80;;;6.30;94.60;;;;;;4840102;29;20435;-64
2021/04/15 05:09:52;;;;;;;4.07;1.92;;;6.50;94.60;;;;;;4830423;29;20057;-64
2021/04/15 05:12:21;;;;;;;3.03;1.80;;;6.60;94.10;;;;;;4855336;29;20061;-63
2021/04/15 05:14:52;;;;;;;4.78;2.22;;;6.60;93.90;;;;;;4840151;29;20432;-63
2021/04/15 05:17:33;;;;;;;5.20;1.90;;;6.60;93.80;;;;;;4844751;29;20045;-64
2021/04/15 05:20:05;;;;;;;5.35;1.90;;;6.70;93.40;;;;;;4859640;29;20075;-63
2021/04/15 05:22:40;;;;;;;7.30;2.17;;;6.70;92.70;;;;;;4847005;29;20522;-64
2021/04/15 05:25:17;;;;;;;4.30;1.92;;;6.70;92.40;;;;;;4852827;29;20053;-64
2021/04/15 05:27:44;;;;;;;3.88;2.00;;;6.50;92.80;;;;;;4842200;29;20038;-63
2021/04/15 05:30:30;;;;;;;3.92;1.88;;;6.60;92.30;;;;;;4826652;29;20532;-64
2021/04/15 05:33:00;;;;;;;3.63;1.90;;;6.60;92.90;;;;;;4841143;29;20052;-64
2021/04/15 05:35:36;;;;;;;4.47;2.03;;;6.60;92.90;;;;;;4840747;29;20443;-64
2021/04/15 05:38:06;;;;;;;5.32;1.80;;;6.50;92.40;;;;;;4842094;29;20053;-64
2021/04/15 05:40:33;;;;;;;4.35;2.20;;;6.60;92.50;;;;;;4843230;29;20065;-64
2021/04/15 05:43:29;;;;;;;5.53;2.13;;;6.60;92.70;;;;;;4825443;29;20466;-64
2021/04/15 05:46:22;;;;;;;5.50;2.28;;;6.60;92.40;;;;;;4854762;29;20149;-64
2021/04/15 05:49:00;;;;;;;3.92;2.10;;;6.60;92.20;;;;;;4856121;29;20049;-63
2021/04/15 05:51:48;;;;;;;5.45;1.92;;;6.70;92.30;;;;;;4847468;29;20046;-63
2021/04/15 05:54:17;;;;;;;4.35;1.95;;;6.70;92.00;;;;;;4807061;29;20066;-64
2021/04/15 05:57:03;;;;;;;6.57;2.67;;;6.70;91.80;;;;;;4840275;29;20546;-64
2021/04/15 05:59:39;;;;;;;4.75;1.83;;;6.70;92.10;;;;;;4829689;29;20045;-63
2021/04/15 06:02:22;;;;;;;5.65;2.05;;;6.80;92.20;;;;;;4848122;29;20485;-64
2021/04/15 06:05:00;;;;;;;4.40;2.10;;;6.80;92.50;;;;;;4834290;29;20061;-63
2021/04/15 06:07:27;;;;;;;4.50;1.98;;;6.90;92.40;;;;;;4830475;29;20057;-64
2021/04/15 06:09:55;;;;;;;5.28;2.40;;;7.00;92.00;;;;;;4839808;29;20526;-64
2021/04/15 06:12:50;;;;;;;4.82;2.38;;;6.90;91.20;;;;;;4840654;29;20069;-63
2021/04/15 06:15:34;;;;;;;3.75;2.00;;;6.90;91.40;;;;;;4846757;29;20045;-64
2021/04/15 06:18:04;;;;;;;5.32;2.30;;;7.00;91.40;;;;;;4852448;29;20033;-64
2021/04/15 06:20:35;;;;;;;4.53;2.05;;;7.00;91.20;;;;;;4823071;29;20041;-63
2021/04/15 06:23:41;;;;;;;5.47;2.13;;;7.00;90.30;;;;;;4841341;29;20046;-64
2021/04/15 06:26:20;;;;;;;3.72;2.17;;;7.00;90.50;;;;;;4801139;29;20063;-64
2021/04/15 06:28:49;;;;;;;6.35;2.05;;;7.10;91.30;;;;;;4813315;29;20058;-64
2021/04/15 06:31:32;;;;;;;4.45;1.67;;;7.10;91.20;;;;;;4816279;29;20069;-63
2021/04/15 06:34:01;;;;;;;3.72;1.50;;;7.00;90.40;;;;;;4820142;29;20125;-63
2021/04/15 06:36:34;;;;;;;4.57;2.33;;;7.00;91.00;;;;;;4803022;29;20560;-64
2021/04/15 06:39:06;;;;;;;3.90;2.22;;;7.10;91.00;;;;;;4803577;29;20050;-63
2021/04/15 06:41:42;;;;;;;3.78;1.55;;;7.20;90.90;;;;;;4802085;29;20069;-63
2021/04/15 06:44:51;;;;;;;6.15;2.83;;;7.20;91.00;;;;;;4815544;29;20179;-63
2021/04/15 06:47:45;;;;;;;4.78;2.30;;;7.20;90.20;;;;;;4794738;29;20074;-64
2021/04/15 06:50:50;;;;;;;4.75;2.45;;;7.30;90.50;;;;;;4812074;29;20070;-63
2021/04/15 06:53:41;;;;;;;4.80;2.20;;;7.20;90.10;;;;;;4804299;29;20220;-64
2021/04/15 06:56:13;;;;;;;4.40;2.08;;;7.30;90.10;;;;;;4816527;29;20058;-64
2021/04/15 06:59:01;;;;;;;4.10;1.80;;;7.30;90.10;;;;;;4817538;29;20051;-63
2021/04/15 07:02:16;;;;;;;5.47;1.55;;;7.30;89.10;;;;;;4819206;29;20050;-63
2021/04/15 07:04:57;;;;;;;3.20;1.65;;;7.40;90.40;;;;;;4848133;29;20230;-64
2021/04/15 07:07:30;;;;;;;4.32;1.95;;;7.40;90.20;;;;;;4843239;29;20045;-63
2021/04/15 07:10:21;;;;;;;4.63;1.98;;;7.50;89.80;;;;;;4860971;29;20562;-63
2021/04/15 07:13:00;;;;;;;5.00;1.88;;;7.40;89.50;;;;;;4852310;29;20137;-65
2021/04/15 07:16:04;;;;;;;5.00;2.03;;;7.50;89.40;;;;;;4858115;29;20068;-65
2021/04/15 07:18:52;;;;;;;3.50;1.65;;;7.40;89.30;;;;;;4845464;29;20045;-65
2021/04/15 07:21:54;;;;;;;3.35;1.65;;;7.50;87.20;;;;;;4839662;29;20053;-65
2021/04/15 07:24:41;;;;;;;3.80;2.00;;;7.50;86.10;;;;;;4845030;29;20046;-65
2021/04/15 07:27:25;;;;;;;3.35;1.55;;;7.40;87.10;;;;;;4848949;29;20400;-65
2021/04/15 07:30:16;;;;;;;4.53;2.22;;;7.40;88.70;;;;;;4846765;29;20461;-65
2021/04/15 07:33:24;;;;;;;3.75;1.75;;;7.50;88.60;;;;;;4829237;29;20057;-65
2021/04/15 07:37:03;;;;;;;3.15;1.50;;;7.60;88.70;;;;;;4853946;29;20060;-63
2021/04/15 07:39:32;;;;;;;3.95;1.40;;;7.70;86.80;;;;;;4804231;29;20062;-63
2021/04/15 07:42:01;;;;;;;5.07;1.45;;;7.70;86.80;;;;;;4813537;29;20062;-63
2021/04/15 07:44:31;;;;;;;5.35;1.90;;;7.80;85.60;;;;;;4824609;29;20050;-63
2021/04/15 07:47:18;;;;;;;3.65;1.40;;;7.70;85.00;;;;;;4806015;29;20141;-63
2021/04/15 07:50:05;;;;;;;4.10;1.83;;;7.80;86.90;;;;;;4817151;29;20183;-63
2021/04/15 07:53:08;;;;;;;3.75;1.30;;;7.80;87.00;;;;;;4817195;29;20099;-63
2021/04/15 07:56:04;;;;;;;3.67;1.50;;;7.90;86.60;;;;;;4817991;29;20093;-63
2021/04/15 07:58:42;;;;;;;2.42;1.25;;;8.00;86.80;;;;;;4806891;29;20038;-63
2021/04/15 08:01:34;;;;;;;3.78;1.52;;;8.10;85.00;;;;;;4807064;29;20061;-64
2021/04/15 08:04:22;;;;;;;2.03;1.00;;;8.10;84.50;;;;;;4811639;29;20047;-64
2021/04/15 08:07:12;;;;;;;5.10;2.00;;;8.20;84.00;;;;;;4813559;29;20051;-64
2021/04/15 08:09:48;;;;;;;2.40;0.85;;;8.20;83.40;;;;;;4820078;29;20058;-64
2021/04/15 08:12:14;;;;;;;3.22;1.25;;;8.20;85.50;;;;;;4808666;29;20061;-64
2021/04/15 08:14:56;;;;;;;2.55;0.88;;;8.20;84.30;;;;;;4829677;29;20050;-64
2021/04/15 08:17:35;;;;;;;2.90;0.90;;;8.10;84.20;;;;;;4843855;29;20042;-63
2021/04/15 08:20:31;;;;;;;3.55;1.05;;;8.10;85.00;;;;;;4832665;29;20061;-63
2021/04/15 08:23:17;;;;;;;4.68;1.67;;;8.20;85.60;;;;;;4799450;29;20048;-63
2021/04/15 08:25:52;;;;;;;4.18;1.30;;;8.10;83.60;;;;;;4792366;29;20130;-63
2021/04/15 08:28:36;;;;;;;5.95;2.13;;;8.20;84.50;;;;;;4798257;29;20059;-63
2021/04/15 08:31:20;;;;;;;3.60;1.10;;;8.20;83.00;;;;;;4795116;29;20055;-64
2021/04/15 08:34:19;;;;;;;4.25;1.70;;;8.00;85.00;;;;;;4789999;29;20504;-64
2021/04/15 08:37:06;;;;;;;4.43;1.55;;;8.00;83.70;;;;;;4737840;30;20870;-64
2021/04/15 08:40:11;;;;;;;1.80;0.60;;;8.10;82.70;;;;;;4746122;30;20116;-64
2021/04/15 08:42:56;;;;;;;1.92;0.80;;;8.10;84.50;;;;;;4741073;30;20070;-63
2021/04/15 08:45:40;;;;;;;2.55;1.05;;;8.20;83.80;;;;;;4747986;30;20199;-63
2021/04/15 08:48:23;;;;;;;2.08;0.75;;;8.20;80.90;;;;;;4745477;30;20075;-64
2021/04/15 08:51:03;;;;;;;2.25;0.75;;;8.20;79.70;;;;;;4751940;30;20143;-64
2021/04/15 08:53:51;;;;;;;1.83;0.80;;;8.20;81.30;;;;;;4750605;30;20071;-64
2021/04/15 08:56:30;;;;;;;2.65;0.90;;;8.30;82.20;;;;;;4751180;30;20067;-64
2021/04/15 08:59:35;;;;;;;3.30;1.20;;;8.20;81.80;;;;;;4743853;30;20639;-64
2021/04/15 09:02:35;;;;;;;2.35;0.73;;;8.00;81.70;;;;;;4714624;30;20125;-64
2021/04/15 09:05:25;;;;;;;2.10;1.00;;;8.00;81.80;;;;;;4724776;30;20084;-63
2021/04/15 09:08:16;;;;;;;3.95;0.88;;;7.90;82.20;;;;;;4727421;30;20068;-63
2021/04/15 09:10:56;;;;;;;3.92;0.95;;;7.90;81.60;;;;;;4721909;30;20048;-63
2021/04/15 09:13:32;;;;;;;2.17;0.93;;;8.00;80.60;;;;;;4746956;29;20054;-63
2021/04/15 09:16:11;;;;;;;3.72;1.40;;;8.00;82.00;;;;;;4775049;29;20059;-63
2021/04/15 09:19:11;;;;;;;2.30;1.42;;;7.90;81.50;;;;;;4779483;30;20108;-63
2021/04/15 09:21:52;;;;;;;1.30;0.50;;;7.90;79.60;;;;;;4772996;29;20857;-63
2021/04/15 09:24:43;;;;;;;2.25;0.60;;;7.90;83.00;;;;;;4777362;29;20047;-63
2021/04/15 09:27:40;;;;;;;2.60;0.90;;;7.90;84.30;;;;;;4774508;30;20059;-63
2021/04/15 09:30:32;;;;;;;2.00;0.90;;;8.00;82.50;;;;;;4771807;29;20112;-63
2021/04/15 09:33:04;;;;;;;1.60;0.50;;;8.00;81.40;;;;;;4817003;29;20133;-63
2021/04/15 09:35:54;;;;;;;2.28;0.68;;;8.00;81.40;;;;;;4823968;29;20055;-63
2021/04/15 09:38:39;;;;;;;2.22;0.90;;;8.00;82.70;;;;;;4841961;29;20064;-63
2021/04/15 09:41:29;;;;;;;2.20;0.95;;;8.10;83.50;;;;;;4833792;29;20066;-63
2021/04/15 09:44:08;;;;;;;2.63;1.20;;;8.00;85.00;;;;;;4841789;29;20041;-64
2021/04/15 09:46:54;;;;;;;1.55;0.50;;;8.00;85.00;;;;;;4843003;29;20413;-64
2021/04/15 09:49:38;;;;;;;2.20;0.77;;;8.00;85.60;;;;;;4830973;29;20896;-64
2021/04/15 09:52:31;;;;;;;1.30;0.43;;;8.00;85.40;;;;;;4831990;29;20048;-64
2021/04/15 09:55:06;;;;;;;6.50;2.47;;;8.00;84.30;;;;;;4833280;29;20557;-64
2021/04/15 09:57:35;;;;;;;6.03;2.10;;;8.00;83.80;;;;;;4835540;29;20409;-64
2021/04/15 10:00:20;;;;;;;5.00;1.98;;;7.90;85.60;;;;;;4847790;29;20042;-64
2021/04/15 10:03:06;;;;;;;5.00;2.67;;;8.00;84.60;;;;;;4849976;29;20038;-64
2021/04/15 10:05:41;;;;;;;3.95;1.35;;;7.90;83.00;;;;;;4848915;29;20030;-65
2021/04/15 10:08:28;;;;;;;5.18;2.40;;;7.90;84.70;;;;;;4831487;29;20501;-63
2021/04/15 10:11:19;;;;;;;3.92;1.38;;;7.90;83.60;;;;;;4846947;29;20062;-63
2021/04/15 10:14:23;;;;;;;3.38;1.45;;;7.90;86.10;;;;;;4833089;29;20053;-64
2021/04/15 10:17:06;;;;;;;2.20;0.63;;;8.00;84.90;;;;;;4852799;29;20453;-64
2021/04/15 10:19:47;;;;;;;5.10;2.22;;;8.10;85.30;;;;;;4850979;29;20050;-63
2021/04/15 10:22:52;;;;;;;2.15;0.88;;;8.20;83.90;;;;;;4851037;29;20056;-64
2021/04/15 10:25:29;;;;;;;3.70;1.65;;;8.20;81.60;;;;;;4842806;29;20053;-64
2021/04/15 10:28:13;;;;;;;42.92;5.88;;;8.20;84.20;;;;;;4842935;29;20046;-64
2021/04/15 10:31:01;;;;;;;1.58;0.80;;;8.00;84.00;;;;;;4836344;29;20049;-64
2021/04/15 10:33:34;;;;;;;3.47;1.23;;;8.00;87.80;;;;;;4830303;29;20065;-64
2021/04/15 10:36:32;;;;;;;3.10;1.90;;;8.00;87.90;;;;;;4846805;29;20054;-64
2021/04/15 10:39:18;;;;;;;4.18;1.63;;;8.10;88.70;;;;;;4782220;29;20063;-64
2021/04/15 10:42:30;;;;;;;6.35;2.65;;;8.00;86.00;;;;;;4780152;30;20051;-64
2021/04/15 10:45:11;;;;;;;2.55;1.40;;;8.10;84.90;;;;;;4778846;30;21011;-63
2021/04/15 10:48:22;;;;;;;4.57;1.92;;;8.10;84.50;;;;;;4761806;29;20051;-63
2021/04/15 10:50:55;;;;;;;1.80;0.55;;;7.90;83.20;;;;;;4762162;30;20043;-63
2021/04/15 10:53:39;;;;;;;3.33;1.02;;;8.00;85.00;;;;;;4761923;29;20051;-64
2021/04/15 10:56:10;;;;;;;1.88;0.68;;;8.10;84.20;;;;;;4779286;30;20431;-64
2021/04/15 10:58:42;;;;;;;3.80;1.50;;;8.10;85.70;;;;;;4765088;30;20051;-64
2021/04/15 11:01:32;;;;;;;0.95;0.43;;;8.10;83.90;;;;;;4779252;30;20055;-64
2021/04/15 11:04:09;;;;;;;2.30;0.95;;;8.10;86.30;;;;;;4779750;29;20131;-64
2021/04/15 11:06:44;;;;;;;2.95;1.13;;;8.30;83.60;;;;;;4778166;29;20635;-64
2021/04/15 11:09:33;;;;;;;2.55;1.08;;;8.40;83.30;;;;;;4779553;29;20060;-63
2021/04/15 11:12:06;;;;;;;3.35;1.05;;;8.50;81.10;;;;;;4780851;29;20063;-64
2021/04/15 11:14:38;;;;;;;1.70;0.40;;;8.60;80.70;;;;;;4766203;29;20056;-64
2021/04/15 11:17:30;;;;;;;1.35;0.60;;;8.80;83.20;;;;;;4842472;29;20053;-64
2021/04/15 11:20:14;;;;;;;1.25;0.32;;;8.90;81.20;;;;;;4840699;29;20073;-64
2021/04/15 11:22:51;;;;;;;1.98;0.93;;;8.90;81.60;;;;;;4847276;29;20065;-64
2021/04/15 11:25:40;;;;;;;0.57;0.22;;;9.00;79.40;;;;;;4846566;29;20664;-64
2021/04/15 11:28:15;;;;;;;0.98;0.30;;;9.10;79.40;;;;;;4848133;29;20110;-64
2021/04/15 11:30:49;;;;;;;2.25;0.90;;;9.00;80.10;;;;;;4849102;29;20050;-64
2021/04/15 11:33:51;;;;;;;1.75;0.20;;;9.10;80.40;;;;;;4817303;29;20065;-64
2021/04/15 11:36:30;;;;;;;0.65;0.30;;;9.40;79.50;;;;;;4844482;29;20121;-64
2021/04/15 11:39:15;;;;;;;0.88;0.30;;;9.80;76.30;;;;;;4825424;29;20053;-64
2021/04/15 11:41:56;;;;;;;2.55;0.40;;;10.00;74.80;;;;;;4832599;29;20539;-64
2021/04/15 11:44:34;;;;;;;2.00;0.30;;;10.10;74.50;;;;;;4838924;29;20046;-63
2021/04/15 11:47:10;;;;;;;1.05;0.30;;;10.10;72.60;;;;;;4848831;29;20381;-63
2021/04/15 11:49:40;;;;;;;1.20;0.32;;;10.30;76.00;;;;;;4849905;29;20037;-65
2021/04/15 11:52:19;;;;;;;1.67;0.47;;;10.60;71.40;;;;;;4842744;29;20050;-65
2021/04/15 11:54:49;;;;;;;1.25;0.20;;;10.70;68.50;;;;;;4850240;29;20049;-64
2021/04/15 11:57:18;;;;;;;1.25;0.50;;;10.80;69.50;;;;;;4839005;29;20057;-64
2021/04/15 12:00:02;;;;;;;2.28;0.82;;;11.00;70.00;;;;;;4854128;29;20132;-64
2021/04/15 12:02:54;;;;;;;1.23;0.52;;;11.30;68.10;;;;;;4856481;29;20102;-64
2021/04/15 12:05:30;;;;;;;;;;;11.30;69.30;;;;;;4854058;29;20121;-64
2021/04/15 12:08:19;;;;;;;0.90;0.20;;;11.30;67.40;;;;;;4845383;29;20399;-64
2021/04/15 12:10:46;;;;;;;1.23;0.15;;;11.20;69.10;;;;;;4843786;29;20054;-65
2021/04/15 12:13:24;;;;;;;2.67;0.50;;;11.10;69.30;;;;;;4834281;29;20053;-64
2021/04/15 12:16:11;;;;;;;0.85;0.60;;;10.80;68.10;;;;;;4833011;29;20076;-63
2021/04/15 12:18:43;;;;;;;1.02;0.10;;;10.40;67.80;;;;;;4854267;29;20045;-63
2021/04/15 12:21:28;;;;;;;2.65;0.50;;;10.10;66.50;;;;;;4852386;29;20417;-63
2021/04/15 12:24:07;;;;;;;1.48;0.40;;;10.00;66.60;;;;;;4843250;29;20045;-62
2021/04/15 12:27:02;;;;;;;1.55;0.50;;;10.10;68.20;;;;;;4829841;29;20042;-62
2021/04/15 12:29:43;;;;;;;1.15;0.30;;;10.10;70.80;;;;;;4844989;29;20053;-62
2021/04/15 12:32:37;;;;;;;2.30;0.70;;;10.20;70.40;;;;;;4853684;29;20054;-63
2021/04/15 12:35:39;;;;;;;1.40;0.38;;;10.30;67.20;;;;;;4852105;29;20682;-63
2021/04/15 12:38:19;;;;;;;1.33;0.30;;;10.40;67.80;;;;;;4789080;29;20081;-63
2021/04/15 12:40:51;;;;;;;1.25;0.50;;;10.70;67.40;;;;;;4797747;29;20110;-62
2021/04/15 12:43:20;;;;;;;0.93;0.40;;;10.70;67.80;;;;;;4791873;29;20051;-63
2021/04/15 12:45:59;;;;;;;1.17;0.22;;;10.50;66.20;;;;;;4766322;29;20046;-63
2021/04/15 12:48:41;;;;;;;1.45;0.50;;;10.30;67.40;;;;;;4782449;29;20058;-63
2021/04/15 12:51:10;;;;;;;1.88;0.77;;;10.00;68.70;;;;;;4790834;29;20071;-63
2021/04/15 12:53:39;;;;;;;1.77;0.40;;;10.00;70.30;;;;;;4778827;29;20057;-63
2021/04/15 12:56:07;;;;;;;2.10;0.30;;;9.90;70.50;;;;;;4796350;29;20119;-62
2021/04/15 12:58:36;;;;;;;2.00;0.47;;;9.70;69.50;;;;;;4787427;29;22372;-64
2021/04/15 13:01:03;;;;;;;0.50;0.10;;;9.70;69.40;;;;;;4795447;29;20949;-62
2021/04/15 13:03:35;;;;;;;1.35;0.25;;;9.60;70.10;;;;;;4781532;29;20069;-62
2021/04/15 13:06:09;;;;;;;1.15;0.30;;;9.50;69.60;;;;;;4793559;29;20043;-63
2021/04/15 13:08:39;;;;;;;1.42;0.50;;;9.50;69.70;;;;;;4797319;29;20065;-62
2021/04/15 13:11:28;;;;;;;1.35;0.30;;;9.40;70.10;;;;;;4796216;29;20128;-62
2021/04/15 13:13:56;;;;;;;1.25;0.50;;;9.40;70.00;;;;;;4809109;29;20395;-62
2021/04/15 13:16:34;;;;;;;1.05;0.40;;;9.20;70.00;;;;;;4848355;29;20057;-62
2021/04/15 13:19:09;;;;;;;1.35;0.30;;;9.10;68.30;;;;;;4846276;29;20054;-63
2021/04/15 13:21:39;;;;;;;0.25;0.10;;;9.20;70.50;;;;;;4832995;29;20390;-62
2021/04/15 13:24:44;;;;;;;0.63;0.30;;;9.40;70.60;;;;;;4832609;29;20528;-63
2021/04/15 13:27:33;;;;;;;0.60;0.15;;;9.80;69.70;;;;;;4838433;29;20046;-62
2021/04/15 13:30:24;;;;;;;0.32;0.10;;;10.50;69.10;;;;;;4828997;29;20038;-64
2021/04/15 13:33:12;;;;;;;5.78;0.20;;;10.90;66.70;;;;;;4840409;29;20038;-65
2021/04/15 13:35:39;;;;;;;1.13;0.30;;;11.40;65.90;;;;;;4847146;29;20041;-65
2021/04/15 13:41:24;;;;;;;2.50;0.30;;;11.10;63.00;;;;;;4822189;29;20080;-64
2021/04/15 13:44:04;;;;;;;0.82;0.13;;;11.10;64.40;;;;;;4847938;29;20048;-64
2021/04/15 13:46:41;;;;;;;1.65;0.40;;;11.00;64.30;;;;;;4850150;29;20513;-64
2021/04/15 13:49:23;;;;;;;1.55;0.40;;;11.00;61.90;;;;;;4848509;29;20045;-64
2021/04/15 13:51:52;;;;;;;0.35;0.10;;;10.90;61.30;;;;;;4815687;29;20050;-63
2021/04/15 13:54:26;;;;;;;0.40;0.10;;;11.00;62.10;;;;;;4839285;29;20054;-65
2021/04/15 13:57:03;;;;;;;0.25;0.05;;;10.90;62.50;;;;;;4846073;29;20045;-64
2021/04/15 14:02:04;;;;;;;0.22;0.10;;;10.70;63.90;;;;;;4840066;29;20038;-63
2021/04/15 14:04:57;;;;;;;1.27;0.30;;;10.60;64.00;;;;;;4847880;29;20057;-63
2021/04/15 14:07:39;;;;;;;1.13;0.10;;;10.70;61.00;;;;;;4851883;29;20144;-63
2021/04/15 14:10:12;;;;;;;0.65;0.20;;;10.70;63.10;;;;;;4848233;29;20304;-63